createdAt,value
2018-04-19T00:04:47.238Z,12.16
2018-04-19T00:07:15.513Z,12.25
2018-04-19T00:09:43.790Z,12.32
2018-04-19T00:12:12.106Z,12.36
2018-04-19T00:14:40.396Z,12.36
2018-04-19T00:17:08.684Z,12.25
2018-04-19T00:19:36.964Z,12.20
2018-04-19T00:22:05.236Z,11.86
2018-04-19T00:24:33.525Z,11.74
2018-04-19T00:27:01.800Z,11.73
2018-04-19T00:29:30.105Z,11.58
2018-04-19T00:31:58.381Z,11.48
2018-04-19T00:34:26.727Z,11.24
2018-04-19T00:36:54.989Z,11.37
2018-04-19T00:39:23.294Z,11.49
2018-04-19T00:41:51.566Z,11.67
2018-04-19T00:44:19.852Z,11.74
2018-04-19T00:46:48.145Z,11.79
2018-04-19T00:49:16.450Z,11.80
2018-04-19T00:51:45.497Z,11.73
2018-04-19T00:54:13.794Z,11.49
2018-04-19T00:56:42.376Z,11.58
2018-04-19T00:59:10.680Z,11.36
2018-04-19T01:01:39.728Z,11.40
2018-04-19T01:04:08.044Z,11.41
2018-04-19T01:06:36.310Z,11.24
2018-04-19T01:09:04.596Z,11.10
2018-04-19T01:11:33.624Z,11.15
2018-04-19T01:14:01.888Z,11.11
2018-04-19T01:16:30.235Z,11.27
2018-04-19T01:18:59.292Z,11.33
2018-04-19T01:21:27.576Z,11.31
2018-04-19T01:23:55.844Z,11.29
2018-04-19T01:26:24.141Z,11.20
2018-04-19T01:28:52.423Z,11.24
2018-04-19T01:31:20.718Z,11.27
2018-04-19T01:33:48.980Z,11.32
2018-04-19T01:36:26.054Z,11.27
2018-04-19T01:38:54.327Z,11.23
2018-04-19T01:41:22.642Z,11.21
2018-04-19T01:43:51.677Z,11.07
2018-04-19T01:46:19.962Z,10.97
2018-04-19T01:48:48.251Z,10.98
2018-04-19T01:51:16.543Z,10.96
2018-04-19T01:53:44.819Z,10.93
2018-04-19T01:56:13.099Z,10.95
2018-04-19T01:58:41.376Z,11.00
2018-04-19T02:01:09.672Z,11.03
2018-04-19T02:03:38.796Z,10.97
2018-04-19T02:06:07.096Z,11.02
2018-04-19T02:08:35.375Z,10.96
2018-04-19T02:11:03.660Z,10.93
2018-04-19T02:13:31.943Z,10.82
2018-04-19T02:16:00.219Z,10.81
2018-04-19T02:18:28.496Z,10.70
2018-04-19T02:20:56.844Z,10.67
2018-04-19T02:23:25.128Z,10.57
2018-04-19T02:25:53.440Z,10.36
2018-04-19T02:28:21.713Z,10.50
2018-04-19T02:30:49.994Z,10.42
2018-04-19T02:33:18.279Z,10.41
2018-04-19T02:35:47.335Z,10.11
2018-04-19T02:38:15.625Z,10.26
2018-04-19T02:40:43.894Z,10.21
2018-04-19T02:43:12.180Z,10.00
2018-04-19T02:45:40.462Z,10.15
2018-04-19T02:48:08.801Z,10.31
2018-04-19T02:50:37.086Z,10.32
2018-04-19T02:53:05.376Z,10.42
2018-04-19T02:55:34.468Z,10.50
2018-04-19T02:58:02.771Z,10.50
2018-04-19T03:00:31.049Z,10.51
2018-04-19T03:03:00.134Z,10.45
2018-04-19T03:05:28.401Z,10.48
2018-04-19T03:07:56.723Z,10.46
2018-04-19T03:10:25.024Z,10.11
2018-04-19T03:12:53.304Z,9.90
2018-04-19T03:15:21.592Z,9.55
2018-04-19T03:17:49.844Z,9.80
2018-04-19T03:20:18.134Z,9.64
2018-04-19T03:22:46.396Z,9.65
2018-04-19T03:25:14.680Z,9.36
2018-04-19T03:27:42.995Z,9.42
2018-04-19T03:30:11.295Z,9.57
2018-04-19T03:32:40.317Z,9.71
2018-04-19T03:35:08.593Z,9.72
2018-04-19T03:37:36.853Z,9.78
2018-04-19T03:40:05.938Z,9.76
2018-04-19T03:42:34.964Z,9.73
2018-04-19T03:45:03.232Z,9.75
2018-04-19T03:47:31.513Z,9.80
2018-04-19T03:49:59.786Z,9.86
2018-04-19T03:52:28.056Z,9.85
2018-04-19T03:54:56.328Z,9.87
2018-04-19T03:57:24.597Z,9.87
2018-04-19T03:59:53.658Z,9.72
2018-04-19T04:02:21.939Z,9.34
2018-04-19T04:04:50.257Z,9.33
2018-04-19T04:07:18.547Z,9.27
2018-04-19T04:09:46.805Z,9.25
2018-04-19T04:12:15.072Z,9.18
2018-04-19T04:14:44.147Z,9.23
2018-04-19T04:17:30.266Z,9.28
2018-04-19T04:20:17.059Z,9.23
2018-04-19T04:23:03.788Z,8.87
2018-04-19T04:25:32.185Z,9.04
2018-04-19T04:28:00.476Z,9.11
2018-04-19T04:30:28.758Z,9.19
2018-04-19T04:32:57.885Z,9.25
2018-04-19T04:35:26.171Z,9.27
2018-04-19T04:37:55.213Z,9.32
2018-04-19T04:40:23.479Z,9.28
2018-04-19T04:42:51.761Z,9.21
2018-04-19T04:45:20.032Z,9.10
2018-04-19T04:47:48.347Z,9.15
2018-04-19T04:50:16.616Z,9.16
2018-04-19T04:52:44.881Z,9.22
2018-04-19T04:55:13.160Z,9.28
2018-04-19T04:57:41.475Z,9.14
2018-04-19T05:00:10.568Z,9.20
2018-04-19T05:02:38.815Z,9.18
2018-04-19T05:05:07.860Z,9.30
2018-04-19T05:07:36.140Z,9.53
2018-04-19T05:10:04.426Z,9.70
2018-04-19T05:12:32.680Z,9.81
2018-04-19T05:15:01.736Z,9.86
2018-04-19T05:17:30.043Z,9.93
2018-04-19T05:19:59.119Z,9.99
2018-04-19T05:22:27.376Z,10.08
2018-04-19T05:24:55.649Z,10.22
2018-04-19T05:27:23.928Z,10.33
2018-04-19T05:29:52.224Z,10.39
2018-04-19T05:32:20.528Z,10.13
2018-04-19T05:34:49.566Z,10.13
2018-04-19T05:37:17.848Z,10.41
2018-04-19T05:39:46.125Z,10.64
2018-04-19T05:42:14.416Z,10.82
2018-04-19T05:44:42.701Z,10.93
2018-04-19T05:47:10.985Z,11.07
2018-04-19T05:49:39.344Z,11.24
2018-04-19T05:52:07.612Z,11.42
2018-04-19T05:54:35.899Z,11.58
2018-04-19T05:57:04.168Z,11.75
2018-04-19T05:59:32.460Z,11.92
2018-04-19T06:02:00.744Z,12.05
2018-04-19T06:04:29.083Z,12.17
2018-04-19T06:06:57.420Z,12.12
2018-04-19T06:09:26.475Z,12.21
2018-04-19T06:11:54.744Z,12.36
2018-04-19T06:14:23.024Z,12.38
2018-04-19T06:16:52.065Z,12.49
2018-04-19T06:19:21.127Z,12.53
2018-04-19T06:21:49.412Z,12.69
2018-04-19T06:24:17.691Z,12.84
2018-04-19T06:26:45.981Z,12.95
2018-04-19T06:29:15.029Z,13.06
2018-04-19T06:31:43.312Z,13.10
2018-04-19T06:34:11.589Z,13.28
2018-04-19T06:36:39.876Z,13.41
2018-04-19T06:39:08.170Z,13.53
2018-04-19T06:41:36.480Z,13.63
2018-04-19T06:44:04.760Z,13.76
2018-04-19T06:46:33.016Z,13.92
2018-04-19T06:49:02.078Z,13.92
2018-04-19T06:51:30.348Z,14.11
2018-04-19T06:53:58.662Z,14.32
2018-04-19T06:56:27.707Z,14.46
2018-04-19T06:58:56.007Z,14.63
2018-04-19T07:01:24.268Z,14.78
2018-04-19T07:03:52.573Z,14.96
2018-04-19T07:06:21.628Z,15.13
2018-04-19T07:08:49.915Z,15.22
2018-04-19T07:11:18.205Z,15.33
2018-04-19T07:13:46.482Z,15.42
2018-04-19T07:16:14.764Z,15.33
2018-04-19T07:18:43.038Z,15.52
2018-04-19T07:21:11.324Z,15.54
2018-04-19T07:23:39.601Z,15.59
2018-04-19T07:26:07.887Z,15.82
2018-04-19T07:28:36.924Z,15.99
2018-04-19T07:31:05.201Z,15.91
2018-04-19T07:33:33.488Z,16.05
2018-04-19T07:36:01.799Z,16.15
2018-04-19T07:38:30.095Z,16.34
2018-04-19T07:40:59.119Z,16.54
2018-04-19T07:43:27.447Z,16.73
2018-04-19T07:45:55.755Z,16.88
2018-04-19T07:48:24.068Z,17.04
2018-04-19T07:50:53.120Z,17.22
2018-04-19T07:53:23.429Z,17.44
2018-04-19T07:55:52.465Z,17.61
2018-04-19T07:58:20.754Z,17.74
2018-04-19T08:00:49.021Z,17.94
2018-04-19T08:03:17.301Z,18.17
2018-04-19T08:05:45.571Z,18.37
2018-04-19T08:08:13.835Z,18.54
2018-04-19T08:10:42.127Z,18.49
2018-04-19T08:13:10.487Z,18.74
2018-04-19T08:15:38.772Z,18.99
2018-04-19T08:18:07.046Z,19.19
2018-04-19T08:20:35.327Z,19.38
2018-04-19T08:23:03.632Z,19.60
2018-04-19T08:25:31.948Z,19.67
2018-04-19T08:28:00.985Z,19.85
2018-04-19T08:30:29.270Z,20.06
2018-04-19T08:32:57.549Z,20.24
2018-04-19T08:35:25.852Z,20.46
2018-04-19T08:37:54.124Z,20.60
2018-04-19T08:40:22.396Z,20.75
2018-04-19T08:42:50.677Z,20.94
2018-04-19T08:45:19.752Z,21.05
2018-04-19T08:47:48.047Z,21.20
2018-04-19T08:50:16.368Z,21.30
2018-04-19T08:52:44.621Z,21.41
2018-04-19T08:55:13.649Z,21.63
2018-04-19T08:57:41.936Z,21.80
2018-04-19T09:00:10.267Z,22.04
2018-04-19T09:02:39.303Z,22.20
2018-04-19T09:05:07.597Z,22.43
2018-04-19T09:07:35.864Z,22.60
2018-04-19T09:10:04.151Z,22.80
2018-04-19T09:12:32.416Z,22.65
2018-04-19T09:15:00.708Z,22.93
2018-04-19T09:17:29.007Z,23.17
2018-04-19T09:19:57.320Z,23.26
2018-04-19T09:22:25.588Z,23.35
2018-04-19T09:24:53.872Z,23.60
2018-04-19T09:27:22.172Z,23.87
2018-04-19T09:29:50.488Z,24.01
2018-04-19T09:32:18.788Z,24.16
2018-04-19T09:34:47.826Z,24.26
2018-04-19T09:37:16.101Z,24.43
2018-04-19T09:39:44.369Z,24.56
2018-04-19T09:42:12.732Z,24.65
2018-04-19T09:44:41.004Z,24.69
2018-04-19T09:47:09.259Z,24.71
2018-04-19T09:49:38.316Z,24.93
2018-04-19T09:52:06.592Z,24.85
2018-04-19T09:54:34.882Z,25.06
2018-04-19T09:57:03.159Z,25.28
2018-04-19T09:59:31.439Z,25.29
2018-04-19T10:02:04.683Z,25.61
2018-04-19T10:04:33.911Z,25.71
2018-04-19T10:07:02.182Z,25.64
2018-04-19T10:09:30.477Z,25.75
2018-04-19T10:11:58.786Z,25.92
2018-04-19T10:14:27.043Z,25.84
2018-04-19T10:16:55.312Z,26.22
2018-04-19T10:19:23.588Z,26.33
2018-04-19T10:21:51.871Z,26.45
2018-04-19T10:24:20.141Z,26.66
2018-04-19T10:26:48.437Z,26.71
2018-04-19T10:29:17.502Z,26.81
2018-04-19T10:31:45.792Z,26.76
2018-04-19T10:34:14.065Z,26.93
2018-04-19T10:36:42.361Z,27.12
2018-04-19T10:39:11.402Z,27.13
2018-04-19T10:41:39.666Z,27.27
2018-04-19T10:44:07.960Z,27.16
2018-04-19T10:46:36.322Z,27.41
2018-04-19T10:49:04.622Z,27.31
2018-04-19T10:51:32.893Z,27.35
2018-04-19T10:54:01.183Z,27.51
2018-04-19T10:56:29.464Z,27.73
2018-04-19T10:58:57.757Z,27.84
2018-04-19T11:01:26.025Z,27.99
2018-04-19T11:03:54.295Z,28.03
2018-04-19T11:06:23.365Z,28.12
2018-04-19T11:08:51.651Z,28.05
2018-04-19T11:11:20.065Z,28.08
2018-04-19T11:13:49.125Z,28.18
2018-04-19T11:16:17.403Z,28.34
2018-04-19T11:18:45.685Z,28.49
2018-04-19T11:21:13.975Z,28.28
2018-04-19T11:23:42.238Z,28.37
2018-04-19T11:26:10.528Z,28.48
2018-04-19T11:28:38.811Z,28.79
2018-04-19T11:31:07.859Z,28.82
2018-04-19T11:33:36.148Z,28.95
2018-04-19T11:36:04.420Z,29.11
2018-04-19T11:38:32.700Z,29.30
2018-04-19T11:41:01.104Z,29.22
2018-04-19T11:43:29.398Z,29.32
2018-04-19T11:45:58.445Z,29.47
2018-04-19T11:48:27.397Z,29.61
2018-04-19T11:50:56.439Z,29.76
2018-04-19T11:53:24.747Z,29.79
2018-04-19T11:55:53.808Z,29.72
2018-04-19T11:58:22.116Z,29.71
2018-04-19T12:00:50.401Z,29.79
2018-04-19T12:03:19.435Z,29.81
2018-04-19T12:05:47.725Z,29.83
2018-04-19T12:08:16.000Z,30.08
2018-04-19T12:10:44.287Z,30.12
2018-04-19T12:13:12.564Z,30.37
2018-04-19T12:15:40.837Z,30.36
2018-04-19T12:18:09.115Z,30.27
2018-04-19T12:20:37.400Z,30.57
2018-04-19T12:23:06.450Z,30.78
2018-04-19T12:25:34.800Z,30.66
2018-04-19T12:28:03.851Z,30.93
2018-04-19T12:30:32.115Z,31.04
2018-04-19T12:33:00.408Z,31.24
2018-04-19T12:35:28.680Z,31.17
2018-04-19T12:37:56.972Z,31.26
2018-04-19T12:40:25.259Z,31.50
2018-04-19T12:42:53.547Z,31.33
2018-04-19T12:45:21.829Z,31.42
2018-04-19T12:47:50.104Z,31.26
2018-04-19T12:50:19.153Z,31.47
2018-04-19T12:52:47.424Z,31.65
2018-04-19T12:55:15.717Z,31.89
2018-04-19T12:57:44.764Z,31.98
2018-04-19T13:00:13.817Z,32.40
2018-04-19T13:02:42.094Z,32.38
2018-04-19T13:05:11.892Z,32.77
2018-04-19T13:07:40.172Z,32.58
2018-04-19T13:10:08.459Z,32.69
2018-04-19T13:12:37.485Z,33.31
2018-04-19T13:15:06.533Z,33.33
2018-04-19T13:17:34.820Z,34.20
2018-04-19T13:20:03.104Z,34.70
2018-04-19T13:22:31.441Z,34.43
2018-04-19T13:24:59.680Z,35.53
2018-04-19T13:27:28.712Z,35.61
2018-04-19T13:29:57.001Z,35.99
2018-04-19T13:32:25.269Z,36.72
2018-04-19T13:34:53.556Z,37.37
2018-04-19T13:37:21.823Z,37.29
2018-04-19T13:39:50.122Z,37.61
2018-04-19T13:42:18.401Z,38.12
2018-04-19T13:44:46.695Z,38.74
2018-04-19T13:47:14.967Z,39.19
2018-04-19T13:49:43.263Z,39.76
2018-04-19T13:52:12.301Z,40.37
2018-04-19T13:54:40.589Z,40.60
2018-04-19T13:57:08.865Z,40.80
2018-04-19T13:59:37.172Z,40.76
2018-04-19T14:02:05.483Z,41.78
2018-04-19T14:04:33.767Z,41.53
2018-04-19T14:07:02.060Z,41.29
2018-04-19T14:09:30.355Z,41.54
2018-04-19T14:11:58.663Z,41.74
2018-04-19T14:14:27.228Z,41.45
2018-04-19T14:16:55.507Z,41.73
2018-04-19T14:19:23.798Z,42.34
2018-04-19T14:21:52.105Z,41.89
2018-04-19T14:24:20.380Z,42.33
2018-04-19T14:26:48.648Z,42.24
2018-04-19T14:29:16.940Z,42.46
2018-04-19T14:31:45.971Z,42.29
2018-04-19T14:34:14.259Z,41.03
2018-04-19T14:36:42.542Z,41.19
2018-04-19T14:39:10.839Z,41.55
2018-04-19T14:41:39.883Z,41.77
2018-04-19T14:44:08.940Z,41.98
2018-04-19T14:46:37.207Z,41.68
2018-04-19T14:49:06.250Z,41.10
2018-04-19T14:51:34.537Z,41.56
2018-04-19T14:54:02.812Z,41.72
2018-04-19T14:56:31.114Z,41.89
2018-04-19T14:59:00.163Z,41.81
2018-04-19T15:01:28.452Z,41.08
2018-04-19T15:03:57.488Z,41.00
2018-04-19T15:06:26.537Z,40.00
2018-04-19T15:08:54.801Z,40.23
2018-04-19T15:11:23.064Z,40.99
2018-04-19T15:13:51.353Z,40.76
2018-04-19T15:16:19.617Z,40.37
2018-04-19T15:18:47.907Z,39.97
2018-04-19T15:21:16.172Z,39.74
2018-04-19T15:23:44.476Z,40.06
2018-04-19T15:26:12.740Z,39.80
2018-04-19T15:28:41.061Z,40.24
2018-04-19T15:31:09.340Z,40.89
2018-04-19T15:33:37.633Z,40.87
2018-04-19T15:36:05.916Z,40.41
2018-04-19T15:38:34.211Z,41.04
2018-04-19T15:41:02.495Z,40.23
2018-04-19T15:43:30.769Z,40.02
2018-04-19T15:45:59.083Z,40.11
2018-04-19T15:48:27.358Z,40.21
2018-04-19T15:50:55.630Z,40.21
2018-04-19T15:53:23.911Z,40.42
2018-04-19T15:55:52.193Z,40.38
2018-04-19T15:58:20.480Z,40.02
2018-04-19T16:00:48.795Z,38.56
2018-04-19T16:03:17.088Z,39.46
2018-04-19T16:05:45.400Z,40.53
2018-04-19T16:08:13.675Z,40.40
2018-04-19T16:10:41.964Z,40.86
2018-04-19T16:13:11.056Z,41.32
2018-04-19T16:15:39.345Z,41.40
2018-04-19T16:18:08.387Z,41.14
2018-04-19T16:20:36.700Z,39.59
2018-04-19T16:23:04.977Z,39.88
2018-04-19T16:25:33.250Z,39.82
2018-04-19T16:28:01.541Z,40.04
2018-04-19T16:30:30.580Z,41.20
2018-04-19T16:32:58.880Z,40.70
2018-04-19T16:35:27.158Z,40.52
2018-04-19T16:37:55.460Z,40.77
2018-04-19T16:40:24.544Z,40.79
2018-04-19T16:42:52.836Z,41.07
2018-04-19T16:45:21.892Z,40.78
2018-04-19T16:47:50.193Z,40.85
2018-04-19T16:50:18.480Z,40.56
2018-04-19T16:52:47.533Z,40.21
2018-04-19T16:55:15.843Z,39.67
2018-04-19T16:57:44.110Z,39.77
2018-04-19T17:00:12.386Z,40.08
2018-04-19T17:02:40.677Z,40.55
2018-04-19T17:05:09.733Z,40.66
2018-04-19T17:07:38.016Z,40.87
2018-04-19T17:10:06.324Z,40.74
2018-04-19T17:12:35.371Z,40.73
2018-04-19T17:15:03.648Z,40.31
2018-04-19T17:17:31.921Z,40.31
2018-04-19T17:20:00.216Z,40.06
2018-04-19T17:22:28.513Z,40.37
2018-04-19T17:24:56.796Z,40.64
2018-04-19T17:27:25.084Z,40.82
2018-04-19T17:29:54.164Z,40.93
2018-04-19T17:32:22.472Z,40.96
2018-04-19T17:34:50.751Z,40.91
2018-04-19T17:37:19.033Z,40.76
2018-04-19T17:39:47.329Z,40.58
2018-04-19T17:42:15.596Z,40.22
2018-04-19T17:44:43.895Z,39.59
2018-04-19T17:47:12.166Z,39.01
2018-04-19T17:49:40.464Z,38.66
2018-04-19T17:52:08.731Z,38.15
2018-04-19T17:54:37.016Z,36.94
2018-04-19T17:57:06.088Z,35.75
2018-04-19T17:59:34.374Z,34.70
2018-04-19T18:02:02.638Z,33.57
2018-04-19T18:04:30.939Z,32.63
2018-04-19T18:06:59.220Z,31.66
2018-04-19T18:09:27.483Z,30.80
2018-04-19T18:11:55.767Z,29.90
2018-04-19T18:14:24.041Z,29.23
2018-04-19T18:16:52.423Z,28.63
2018-04-19T18:19:20.653Z,27.95
2018-04-19T18:21:48.925Z,27.42
2018-04-19T18:24:17.215Z,27.03
2018-04-19T18:26:45.497Z,26.43
2018-04-19T18:29:13.855Z,25.92
2018-04-19T18:31:42.157Z,25.71
2018-04-19T18:34:10.428Z,25.42
2018-04-19T18:36:38.709Z,25.22
2018-04-19T18:39:06.976Z,24.95
2018-04-19T18:41:35.284Z,24.85
2018-04-19T18:44:03.579Z,24.57
2018-04-19T18:46:31.930Z,24.38
2018-04-19T18:49:00.193Z,24.13
2018-04-19T18:51:28.522Z,24.07
2018-04-19T18:53:57.652Z,24.01
2018-04-19T18:56:26.202Z,23.91
2018-04-19T18:58:54.597Z,23.68
2018-04-19T19:01:23.721Z,23.63
2018-04-19T19:03:53.696Z,23.58
2018-04-19T19:06:22.110Z,23.53
2018-04-19T19:08:50.440Z,23.43
2018-04-19T19:11:19.184Z,23.24
2018-04-19T19:13:48.240Z,23.00
2018-04-19T19:16:17.381Z,22.62
2018-04-19T19:19:06.395Z,22.35
2018-04-19T19:21:34.877Z,22.02
2018-04-19T19:24:03.866Z,21.98
2018-04-19T19:26:32.323Z,21.67
2018-04-19T19:29:03.430Z,21.65
2018-04-19T19:31:32.688Z,21.77
2018-04-19T19:34:02.797Z,21.33
2018-04-19T19:36:33.592Z,21.12
2018-04-19T19:39:03.553Z,21.10
2018-04-19T19:41:33.547Z,21.04
2018-04-19T19:44:03.433Z,21.03
2018-04-19T19:46:33.361Z,21.04
2018-04-19T19:49:03.158Z,20.85
2018-04-19T19:51:33.072Z,20.81
2018-04-19T19:54:02.896Z,20.65
2018-04-19T19:56:32.921Z,20.57
2018-04-19T19:59:02.210Z,20.57
2018-04-19T20:01:33.242Z,20.37
2018-04-19T20:04:03.150Z,20.45
2018-04-19T20:06:32.923Z,20.45
2018-04-19T20:09:02.209Z,20.29
2018-04-19T20:11:31.496Z,20.22
2018-04-19T20:14:00.848Z,20.00
2018-04-19T20:16:30.038Z,19.71
2018-04-19T20:18:59.316Z,19.73
2018-04-19T20:21:29.370Z,19.84
2018-04-19T20:23:59.292Z,19.83
2018-04-19T20:26:28.473Z,19.56
2018-04-19T20:28:56.947Z,19.65
2018-04-19T20:31:26.239Z,19.85
2018-04-19T20:33:54.535Z,19.95
2018-04-19T20:36:22.975Z,19.97
2018-04-19T20:38:52.162Z,19.84
2018-04-19T20:41:20.482Z,19.79
2018-04-19T20:43:50.275Z,19.78
2018-04-19T20:46:18.609Z,19.57
2018-04-19T20:48:46.929Z,19.68
2018-04-19T20:51:16.024Z,19.70
2018-04-19T20:53:45.082Z,19.71
2018-04-19T20:56:13.351Z,19.57
2018-04-19T20:58:41.644Z,19.50
2018-04-19T21:01:09.941Z,19.35
2018-04-19T21:03:38.280Z,19.26
2018-04-19T21:06:06.551Z,19.18
2018-04-19T21:08:34.840Z,19.02
2018-04-19T21:11:03.108Z,18.81
2018-04-19T21:13:31.386Z,18.77
2018-04-19T21:15:59.676Z,18.73
2018-04-19T21:18:27.947Z,18.62
2018-04-19T21:20:56.240Z,18.38
2018-04-19T21:23:24.516Z,18.36
2018-04-19T21:25:52.804Z,18.25
2018-04-19T21:28:21.128Z,18.18
2018-04-19T21:30:49.479Z,18.06
2018-04-19T21:33:17.780Z,18.01
2018-04-19T21:35:46.079Z,17.96
2018-04-19T21:38:14.344Z,17.82
2018-04-19T21:40:42.670Z,17.75
2018-04-19T21:43:11.712Z,17.63
2018-04-19T21:45:40.010Z,17.41
2018-04-19T21:48:08.288Z,17.32
2018-04-19T21:50:36.556Z,17.15
2018-04-19T21:53:04.844Z,17.09
2018-04-19T21:55:33.131Z,17.02
2018-04-19T21:58:01.432Z,16.96
2018-04-19T22:00:30.521Z,16.88
2018-04-19T22:02:58.792Z,16.87
2018-04-19T22:05:27.096Z,16.86
2018-04-19T22:07:56.143Z,16.65
2018-04-19T22:10:24.444Z,16.69
2018-04-19T22:12:53.488Z,16.67
2018-04-19T22:15:21.756Z,16.59
2018-04-19T22:17:50.048Z,16.53
2018-04-19T22:20:18.355Z,16.33
2018-04-19T22:22:46.645Z,16.27
2018-04-19T22:25:14.966Z,15.82
2018-04-19T22:27:43.976Z,15.80
2018-04-19T22:30:12.277Z,15.74
2018-04-19T22:32:40.614Z,15.46
2018-04-19T22:35:08.937Z,15.25
2018-04-19T22:37:37.241Z,15.33
2018-04-19T22:40:06.279Z,15.43
2018-04-19T22:42:34.568Z,15.40
2018-04-19T22:45:02.874Z,15.38
2018-04-19T22:47:31.143Z,15.32
2018-04-19T22:49:59.423Z,15.04
2018-04-19T22:52:27.720Z,15.14
2018-04-19T22:54:56.767Z,15.16
2018-04-19T22:57:25.049Z,15.17
2018-04-19T22:59:53.345Z,15.13
2018-04-19T23:02:21.623Z,15.05
2018-04-19T23:04:49.897Z,14.95
2018-04-19T23:07:18.181Z,14.73
2018-04-19T23:09:47.230Z,14.63
2018-04-19T23:12:15.521Z,14.14
2018-04-19T23:14:43.807Z,13.95
2018-04-19T23:17:12.096Z,14.06
2018-04-19T23:19:40.391Z,13.93
2018-04-19T23:22:09.535Z,13.87
2018-04-19T23:24:37.823Z,14.08
2018-04-19T23:27:06.111Z,14.04
2018-04-19T23:29:34.424Z,14.05
2018-04-19T23:32:02.717Z,14.11
2018-04-19T23:34:31.038Z,14.08
2018-04-19T23:36:59.333Z,13.61
2018-04-19T23:39:27.663Z,13.80
2018-04-19T23:41:55.930Z,13.77
2018-04-19T23:44:24.226Z,13.84
2018-04-19T23:46:52.503Z,13.76
2018-04-19T23:49:20.793Z,13.82
2018-04-19T23:51:49.108Z,13.76
2018-04-19T23:54:18.163Z,13.69
2018-04-19T23:56:46.436Z,13.70
2018-04-19T23:59:14.710Z,13.28
